WetterOnline ( https://www.wetteronline.de )

Wetter aktuell Dieblich

Aktuelles Wetter: Andernach (75m)

6-stündlich | Neueste Meldungen
Ortszeit Temperatur Wetter
Di, 15.10. 14:00 18.4° C bedeckt
Di, 15.10. 8:00 10.5° C bewölkt
Di, 15.10. 2:00 12.2° C wolkig
Mo, 14.10. 20:00 19.5° C wolkig
Mo, 14.10. 14:00 22.9° C wolkenlos
Mo, 14.10. 8:00 12.0° C bewölkt
Mo, 14.10. 2:00 14.3° C wolkig
So, 13.10. 20:00 18.9° C wolkig
Ortszeit Temperatur Wetter
Di, 15.10. 17:30 17.5° C leichter Regen
Di, 15.10. 17:20 17.5° C leichter Regen
Di, 15.10. 17:10 17.6° C bedeckt
Di, 15.10. 17:00 17.7° C bedeckt
Di, 15.10. 16:50 17.7° C bedeckt
Di, 15.10. 16:40 17.8° C bedeckt
Di, 15.10. 16:30 17.7° C bedeckt
Di, 15.10. 16:00 17.8° C bedeckt
Di, 15.10. 15:30 18.2° C bedeckt
Di, 15.10. 15:00 18.5° C bewölkt
Di, 15.10. 14:30 18.5° C bedeckt
Ortszeit Relative Feuchte Sichtweite
Di, 15.10. 14:00 73% 30 km
Di, 15.10. 8:00 97% 11 km
Di, 15.10. 2:00 95% 18 km
Mo, 14.10. 20:00 71% 35 km
Mo, 14.10. 14:00 55% 40 km
Mo, 14.10. 8:00 99% 10 km
Mo, 14.10. 2:00 94% 26 km
So, 13.10. 20:00 82% 35 km
Ortszeit Relative Feuchte Sichtweite
Di, 15.10. 17:30 70% 50 km
Di, 15.10. 17:20 70% -
Di, 15.10. 17:10 69% -
Di, 15.10. 17:00 69% 60 km
Di, 15.10. 16:50 69% -
Di, 15.10. 16:40 69% -
Di, 15.10. 16:30 70% 55 km
Di, 15.10. 16:00 69% 55 km
Di, 15.10. 15:30 68% 55 km
Di, 15.10. 15:00 68% 55 km
Di, 15.10. 14:30 71% 50 km
Ortszeit Niederschlagsmenge Niederschlagsart
Di, 15.10. 14:00 0.0 l/m2 in 6 Std. -
Di, 15.10. 8:00 0.0 l/m2 in 12 Std. -
Di, 15.10. 2:00 0.0 l/m2 in 6 Std. -
Mo, 14.10. 20:00 0.0 l/m2 in 12 Std. -
Mo, 14.10. 14:00 0.0 l/m2 in 6 Std. -
Mo, 14.10. 8:00 0.0 l/m2 in 12 Std. -
Mo, 14.10. 2:00 0.0 l/m2 in 6 Std. -
So, 13.10. 20:00 0.1 l/m2 in 12 Std. -
Ortszeit Niederschlagsmenge Niederschlagsart
Di, 15.10. 17:30 0.1 l/m2 in 1 Std. -
Di, 15.10. 17:20 keine Meldung -
Di, 15.10. 17:10 keine Meldung -
Di, 15.10. 17:00 0.0 l/m2 in 1 Std. Regen
Di, 15.10. 16:50 keine Meldung -
Di, 15.10. 16:40 keine Meldung -
Di, 15.10. 16:30 0.0 l/m2 in 1 Std. -
Di, 15.10. 16:00 0.1 l/m2 in 1 Std. Regen
Di, 15.10. 15:30 0.1 l/m2 in 1 Std. Schneeregen
Di, 15.10. 15:00 0.0 l/m2 in 1 Std. -
Di, 15.10. 14:30 0.0 l/m2 in 1 Std. -
Ortszeit Stärke Spitze Richtung
km/h Bft. km/h Grad Sektor
Di, 15.10. 14:00 7 2 14 200° S
Di, 15.10. 8:00 4 1 11 80° O
Di, 15.10. 2:00 6 1 11 200° S
Mo, 14.10. 20:00 4 1 29 140° SO
Mo, 14.10. 14:00 20 4 33 170° S
Mo, 14.10. 8:00 0 0 7 - -
Mo, 14.10. 2:00 4 1 7 280° W
So, 13.10. 20:00 2 1 33 210° SW
Ortszeit Stärke Spitze Richtung
km/h Bft. km/h Grad Sektor
Di, 15.10. 17:30 11 2 14 220° SW
Di, 15.10. 17:20 11 2 - 220° SW
Di, 15.10. 17:10 11 2 - 210° SW
Di, 15.10. 17:00 11 2 18 230° SW
Di, 15.10. 16:50 11 2 - 230° SW
Di, 15.10. 16:40 9 2 - 220° SW
Di, 15.10. 16:30 9 2 19 230° SW
Di, 15.10. 16:00 9 2 26 230° SW
Di, 15.10. 15:30 13 3 26 240° SW
Di, 15.10. 15:00 13 3 20 230° SW
Di, 15.10. 14:30 11 2 22 200° S
Ortszeit Untergrenze Bedeckung Gattung
total tief tief mittel hoch
Di, 15.10. 14:00 1080 m 8/8 8/8 - - -
Di, 15.10. 8:00 6600 m 8/8 7/8 - - -
Di, 15.10. 2:00 9000 m 8/8 0/8 - - -
Mo, 14.10. 20:00 8700 m 8/8 0/8 - - -
Mo, 14.10. 14:00 - 0/8 0/8 - - -
Mo, 14.10. 8:00 3600 m 8/8 7/8 - - -
Mo, 14.10. 2:00 7500 m 8/8 0/8 - - -
So, 13.10. 20:00 7200 m 8/8 0/8 - - -
Ortszeit Bedeckungsgrad in Achtel und Wolkenuntergrenze
Di, 15.10. 17:30 8(1020m)
Di, 15.10. 17:20 8(1020m)
Di, 15.10. 17:10 7(1050m) 8(2100m)
Di, 15.10. 17:00 2(1170m) 8(2100m) 8(2400m)
Di, 15.10. 16:50 2(1170m) 8(2100m) 8(2400m)
Di, 15.10. 16:40 1(1200m) 7(2100m) 8(2400m)
Di, 15.10. 16:30 1(1170m) 7(1800m) 8(2400m)
Di, 15.10. 16:00 4(780m) 8(1800m)
Di, 15.10. 15:30 5(780m) 7(930m) 8(1800m)
Di, 15.10. 15:00 3(990m) 7(1800m) 8(3300m)
Di, 15.10. 14:30 5(1080m) 8(2400m) 8(3600m)
Ortszeit Luftdruck NN (hPa) Tendenz (hPa in 3 Std.)
Di, 15.10. 14:00 1007 - 0,4
Di, 15.10. 8:00 1007 - 0,7
Di, 15.10. 2:00 1009 0,0
Mo, 14.10. 20:00 1009 - 0,2
Mo, 14.10. 14:00 1011 - 2,5
Mo, 14.10. 8:00 1014 0,0
Mo, 14.10. 2:00 1014 + 0,9
So, 13.10. 20:00 1011 + 0,8
Ortszeit Luftdruck NN (hPa) Tendenz (hPa in 3 Std.)
Di, 15.10. 17:30 1007 - 0,2
Di, 15.10. 17:20 1007 keine Meldung
Di, 15.10. 17:10 1006 keine Meldung
Di, 15.10. 17:00 1006 - 0,5
Di, 15.10. 16:50 1006 keine Meldung
Di, 15.10. 16:40 1006 keine Meldung
Di, 15.10. 16:30 1006 - 0,7
Di, 15.10. 16:00 1006 - 0,9
Di, 15.10. 15:30 1006 - 0,5
Di, 15.10. 15:00 1006 - 0,5
Di, 15.10. 14:30 1007 - 0,3
Ortszeit Schneehöhe (cm)
Di, 15.10. 14:00 0
Di, 15.10. 8:00 0
Di, 15.10. 2:00 0
Mo, 14.10. 20:00 0
Mo, 14.10. 14:00 0
Mo, 14.10. 8:00 0
Mo, 14.10. 2:00 0
So, 13.10. 20:00 0
Ortszeit Schneehöhe (cm)
Di, 15.10. 17:30 0
Di, 15.10. 17:20 0
Di, 15.10. 17:10 0
Di, 15.10. 17:00 0
Di, 15.10. 16:50 0
Di, 15.10. 16:40 0
Di, 15.10. 16:30 0
Di, 15.10. 16:00 0
Di, 15.10. 15:30 0
Di, 15.10. 15:00 0
Di, 15.10. 14:30 0
Link zu dieser Seite / Seite empfehlen

Das Wetter in ...